Terminal Aerodrome Forecast
Issued by NWS Charleston, WV

Current Version | Previous Version | Text Only | Print | Product List | Glossary Off
Versions: 1 2 3 4 5 6 7 8 9 10 11 12 13 14 15 16 17 18 19 20 21 22 23 24 25 26 27

000
FTUS41 KRLX 212300 RRA
TAFCRW
TAF
KCRW 212348Z 2200/2224 28005KT 6SM -SHRA BR OVC025
      TEMPO 2200/2204 3SM -SHRA BR SCT008 OVC015
     FM220800 30006KT P6SM OVC015
     FM221700 32007KT P6SM OVC025
     FM222200 32005KT P6SM BKN035=

USA.gov is the U.S. government's official web portal to all federal, state and local government web resources and services.